Terminal Aerodrome Forecast
Issued by NWS

Home | Current Version | Previous Version | Text Only | Print | Product List | Glossary On
Versions: 1 2 3 4 5 6 7 8 9 10 11 12 13 14 15 16 17 18 19 20 21 22 23 24 25 26 27 28 29 30 31 32 33 34 35 36 37 38 39 40 41 42 43 44
000
FTUS42 KGSP 041125
TAFHKY
TAF
KHKY 041125Z 0412/0512 24006KT P6SM -SHRA BKN060
     FM041400 23006KT P6SM VCSH BKN045
     FM042000 24005KT P6SM -SHRA VCTS SCT040 BKN080CB
     FM050500 25003KT P6SM BKN110
     FM051100 00000KT P6SM OVC110=

USA.gov is the U.S. government's official web portal to all federal, state and local government web resources and services.